Time;durP1;ratioP1;P1;durP2;ratioP2;P2;SDS_P1;SDS_P2;PMS_P1;PMS_P2;Temp;Humidity;BMP_temperature;BMP_pressure;BME280_temperature;BME280_humidity;BME280_pressure;Samples;Min_cycle;Max_cycle;Signal;HPM_P1;HPM_P2
2022/07/14 00:02:17;;;;;;;13.20;2.67;;;14.20;99.90;;;;;;6158556;23;20017;-84
2022/07/14 00:04:42;;;;;;;14.18;2.80;;;14.20;99.90;;;;;;6159142;23;20064;-84
2022/07/14 00:07:08;;;;;;;10.07;2.20;;;14.10;99.90;;;;;;6185835;23;20020;-84
2022/07/14 00:09:33;;;;;;;12.90;2.47;;;14.10;99.90;;;;;;6157905;23;20044;-84
2022/07/14 00:11:59;;;;;;;10.65;2.70;;;14.10;99.90;;;;;;6159206;23;20017;-84
2022/07/14 00:14:25;;;;;;;12.68;2.97;;;14.10;99.90;;;;;;6185982;23;20025;-84
2022/07/14 00:16:51;;;;;;;12.30;2.42;;;14.10;99.90;;;;;;6184730;23;20075;-84
2022/07/14 00:19:17;;;;;;;12.93;2.50;;;14.10;99.90;;;;;;6159252;23;20021;-84
2022/07/14 00:22:27;;;;;;;12.52;3.05;;;14.20;99.90;;;;;;6151903;23;20021;-84
2022/07/14 00:24:52;;;;;;;13.13;2.90;;;14.00;99.90;;;;;;6153715;23;20017;-84
2022/07/14 00:27:21;;;;;;;14.93;2.42;;;15.00;99.90;;;;;;6157201;23;20010;-84
2022/07/14 00:30:06;;;;;;;11.00;2.67;;;14.60;99.90;;;;;;6179740;23;20103;-84
2022/07/14 00:32:33;;;;;;;12.85;3.28;;;14.00;99.90;;;;;;6158154;23;20020;-84
2022/07/14 00:35:09;;;;;;;13.75;2.75;;;14.80;99.90;;;;;;6185411;23;20063;-83
2022/07/14 00:37:53;;;;;;;10.25;2.40;;;14.00;99.90;;;;;;6158530;23;20346;-84
2022/07/14 00:40:24;;;;;;;11.20;2.55;;;14.20;99.90;;;;;;6159065;23;20428;-84
2022/07/14 00:42:59;;;;;;;10.73;2.50;;;14.60;99.90;;;;;;6158492;23;20017;-84
2022/07/14 00:45:28;;;;;;;9.68;2.67;;;15.00;99.90;;;;;;6158093;23;20473;-84
2022/07/14 00:48:02;;;;;;;14.20;2.50;;;14.90;99.90;;;;;;6185064;23;20017;-84
2022/07/14 00:50:46;;;;;;;11.80;2.50;;;14.70;99.90;;;;;;6185519;23;20020;-84
2022/07/14 00:53:21;;;;;;;10.27;2.53;;;14.40;99.90;;;;;;6157667;23;20021;-84
2022/07/14 00:56:02;;;;;;;12.43;2.67;;;13.50;99.90;;;;;;6158483;23;20063;-84
2022/07/14 00:58:28;;;;;;;13.40;2.92;;;13.70;99.90;;;;;;6158594;23;20425;-84
2022/07/14 01:00:54;;;;;;;13.15;3.00;;;13.60;99.90;;;;;;6184306;23;20020;-84
2022/07/14 01:03:22;;;;;;;12.02;3.42;;;13.50;99.90;;;;;;6185153;23;20135;-84
2022/07/14 01:05:51;;;;;;;12.48;3.05;;;13.60;99.90;;;;;;6184138;23;20089;-84
2022/07/14 01:08:34;;;;;;;13.63;3.05;;;13.50;99.90;;;;;;6185260;23;20017;-84
2022/07/14 01:11:00;;;;;;;11.15;2.65;;;14.30;99.90;;;;;;6158628;23;20797;-84
2022/07/14 01:13:32;;;;;;;13.55;3.00;;;13.90;99.90;;;;;;6157698;23;20009;-84
2022/07/14 01:16:21;;;;;;;10.43;3.00;;;13.80;99.90;;;;;;6158451;23;20023;-84
2022/07/14 01:19:10;;;;;;;13.38;2.90;;;13.20;99.90;;;;;;6158555;23;20056;-84
2022/07/14 01:22:07;;;;;;;13.05;3.08;;;13.30;99.90;;;;;;6183006;23;20028;-84
2022/07/14 01:24:39;;;;;;;10.07;2.75;;;13.20;99.90;;;;;;6099304;23;20021;-84
2022/07/14 01:27:23;;;;;;;13.05;3.08;;;14.10;99.90;;;;;;6158218;23;20056;-84
2022/07/14 01:29:55;;;;;;;9.52;2.63;;;14.20;99.90;;;;;;6184673;23;20012;-84
2022/07/14 01:32:30;;;;;;;12.20;2.70;;;12.40;99.90;;;;;;6185215;23;20453;-84
2022/07/14 01:34:56;;;;;;;11.52;2.80;;;14.00;99.90;;;;;;6157495;23;20350;-84
2022/07/14 01:37:24;;;;;;;12.95;3.15;;;14.10;99.90;;;;;;6172786;23;20017;-83
2022/07/14 01:39:53;;;;;;;12.07;2.72;;;12.60;99.90;;;;;;6157982;23;20017;-84
2022/07/14 01:42:28;;;;;;;10.43;3.17;;;12.80;99.90;;;;;;6157556;23;20120;-84
2022/07/14 01:44:54;;;;;;;13.13;3.00;;;12.80;99.90;;;;;;6184180;23;20020;-84
2022/07/14 01:47:19;;;;;;;12.15;3.10;;;13.60;99.90;;;;;;6158659;23;20021;-84
2022/07/14 01:49:51;;;;;;;13.57;3.00;;;13.80;99.90;;;;;;6184116;23;20036;-84
2022/07/14 01:52:35;;;;;;;10.68;3.20;;;12.40;99.90;;;;;;6158803;23;20052;-84
2022/07/14 01:55:04;;;;;;;11.38;2.95;;;12.70;99.90;;;;;;6157321;23;20017;-84
2022/07/14 01:57:30;;;;;;;12.52;3.15;;;12.60;99.90;;;;;;6158786;23;20441;-84
2022/07/14 01:59:55;;;;;;;13.95;3.38;;;12.20;99.90;;;;;;6157728;23;20056;-84
2022/07/14 02:02:21;;;;;;;15.00;3.35;;;12.40;99.90;;;;;;6156681;23;20079;-84
2022/07/14 02:04:59;;;;;;;13.80;3.22;;;12.50;99.90;;;;;;6157808;23;20028;-84
2022/07/14 02:07:34;;;;;;;12.90;3.88;;;13.40;99.90;;;;;;6158250;23;20035;-84
2022/07/14 02:12:45;;;;;;;11.77;3.30;;;13.70;99.90;;;;;;6184663;23;20047;-84
2022/07/14 02:15:40;;;;;;;14.98;3.38;;;13.30;99.90;;;;;;6156761;23;20025;-84
2022/07/14 02:18:05;;;;;;;14.63;3.28;;;12.20;99.90;;;;;;6183922;23;20075;-84
2022/07/14 02:20:31;;;;;;;14.15;3.42;;;13.60;99.90;;;;;;6158020;23;20021;-84
2022/07/14 02:22:57;;;;;;;11.27;3.30;;;13.50;99.90;;;;;;6183725;23;20044;-84
2022/07/14 02:25:22;;;;;;;13.05;3.08;;;12.70;99.90;;;;;;6185060;23;20084;-84
2022/07/14 02:27:51;;;;;;;11.93;3.35;;;12.50;99.90;;;;;;6157956;23;20048;-84
2022/07/14 02:30:35;;;;;;;12.05;3.05;;;12.60;99.90;;;;;;6159410;23;20020;-84
2022/07/14 02:33:03;;;;;;;12.93;3.17;;;12.40;99.90;;;;;;6159797;23;20095;-84
2022/07/14 02:35:41;;;;;;;12.98;3.30;;;11.60;99.90;;;;;;6187015;23;20009;-84
2022/07/14 02:38:10;;;;;;;11.98;3.00;;;13.50;99.90;;;;;;6185888;23;20016;-84
2022/07/14 02:40:35;;;;;;;14.55;3.90;;;12.50;99.90;;;;;;6186305;23;20565;-84
2022/07/14 02:43:03;;;;;;;11.10;3.65;;;12.40;99.90;;;;;;6159458;23;20041;-84
2022/07/14 02:45:35;;;;;;;11.90;2.80;;;12.50;99.90;;;;;;6159420;23;20097;-84
2022/07/14 02:48:13;;;;;;;12.13;3.25;;;12.20;99.90;;;;;;6186353;23;20096;-84
2022/07/14 02:50:47;;;;;;;10.05;2.67;;;13.40;99.90;;;;;;6160279;23;20024;-84
2022/07/14 02:53:25;;;;;;;13.07;3.83;;;12.70;99.90;;;;;;6185935;23;20505;-84
2022/07/14 02:56:05;;;;;;;13.15;3.10;;;13.30;99.90;;;;;;6159750;23;20075;-84
2022/07/14 02:58:40;;;;;;;11.43;2.95;;;12.20;99.90;;;;;;6158816;23;20049;-84
2022/07/14 03:01:21;;;;;;;13.70;3.47;;;12.00;99.90;;;;;;6160149;23;20013;-84
2022/07/14 03:04:02;;;;;;;9.68;3.40;;;12.80;99.90;;;;;;6159449;23;20028;-84
2022/07/14 03:06:34;;;;;;;16.35;3.53;;;12.70;99.90;;;;;;6159118;23;20438;-84
2022/07/14 03:09:09;;;;;;;12.07;3.25;;;12.00;99.90;;;;;;6159824;23;20529;-84
2022/07/14 03:11:41;;;;;;;13.32;3.03;;;13.20;99.90;;;;;;6159957;23;20013;-84
2022/07/14 03:14:06;;;;;;;11.98;3.28;;;11.90;99.90;;;;;;6185123;23;20013;-84
2022/07/14 03:17:04;;;;;;;13.88;3.50;;;11.90;99.90;;;;;;6186330;23;20017;-85
2022/07/14 03:19:36;;;;;;;13.88;3.50;;;11.90;99.90;;;;;;6185286;23;20507;-84
2022/07/14 03:22:02;;;;;;;13.38;3.63;;;11.80;99.90;;;;;;6186114;23;20085;-84
2022/07/14 03:24:27;;;;;;;11.52;3.03;;;11.80;99.90;;;;;;6159739;23;20017;-84
2022/07/14 03:27:08;;;;;;;13.13;3.30;;;12.40;99.90;;;;;;6185142;23;20366;-84
2022/07/14 03:29:49;;;;;;;12.27;3.60;;;11.40;99.90;;;;;;6159766;23;20055;-84
2022/07/14 03:32:18;;;;;;;11.52;4.05;;;11.70;99.90;;;;;;6186837;23;20013;-84
2022/07/14 03:34:47;;;;;;;11.95;3.47;;;12.80;99.90;;;;;;6158439;23;20047;-84
2022/07/14 03:37:24;;;;;;;10.82;3.40;;;13.20;99.90;;;;;;6186291;23;20009;-84
2022/07/14 03:40:04;;;;;;;12.30;3.50;;;12.70;99.90;;;;;;6185409;23;20040;-84
2022/07/14 03:42:35;;;;;;;12.77;3.60;;;11.90;99.90;;;;;;6184878;23;20051;-84
2022/07/14 03:45:01;;;;;;;13.93;4.70;;;13.00;99.90;;;;;;6159063;23;20021;-84
2022/07/14 03:47:32;;;;;;;12.02;3.70;;;12.70;99.90;;;;;;6185264;23;20048;-83
2022/07/14 03:50:28;;;;;;;16.17;3.92;;;11.90;99.90;;;;;;6158691;23;20023;-84
2022/07/14 03:52:53;;;;;;;14.52;3.97;;;12.00;99.90;;;;;;6159015;23;20013;-84
2022/07/14 03:55:27;;;;;;;13.55;3.72;;;12.10;99.90;;;;;;6158471;23;20453;-84
2022/07/14 03:57:52;;;;;;;12.48;3.65;;;12.40;99.90;;;;;;6185762;23;20097;-84
2022/07/14 04:00:37;;;;;;;14.52;4.40;;;12.70;99.90;;;;;;6159228;23;20021;-84
2022/07/14 04:03:03;;;;;;;15.15;3.85;;;12.30;99.90;;;;;;6159088;23;20091;-84
2022/07/14 04:05:29;;;;;;;17.92;4.30;;;12.00;99.90;;;;;;6158917;23;20096;-84
2022/07/14 04:07:54;;;;;;;12.30;3.67;;;12.00;99.90;;;;;;6185528;23;20017;-84
2022/07/14 04:10:20;;;;;;;13.95;4.45;;;12.00;99.90;;;;;;6185341;23;20029;-84
2022/07/14 04:12:46;;;;;;;15.32;3.67;;;12.00;99.90;;;;;;6185800;23;20049;-84
2022/07/14 04:15:12;;;;;;;12.77;4.22;;;12.00;99.90;;;;;;6158833;23;20045;-84
2022/07/14 04:17:38;;;;;;;13.63;3.60;;;12.00;99.90;;;;;;6184793;23;20076;-84
2022/07/14 04:20:04;;;;;;;14.02;3.95;;;12.00;99.90;;;;;;6158909;23;20044;-84
2022/07/14 04:22:30;;;;;;;12.73;3.92;;;12.10;99.90;;;;;;6158542;23;20020;-84
2022/07/14 04:24:56;;;;;;;15.48;3.97;;;12.20;99.90;;;;;;6184656;23;20009;-84
2022/07/14 04:27:22;;;;;;;13.98;4.22;;;12.20;99.90;;;;;;6159278;23;20017;-84
2022/07/14 04:29:47;;;;;;;10.00;3.58;;;12.20;99.90;;;;;;6183775;23;20299;-84
2022/07/14 04:32:13;;;;;;;13.38;3.92;;;12.30;99.90;;;;;;6158133;23;20024;-84
2022/07/14 04:34:39;;;;;;;10.75;4.00;;;12.30;99.90;;;;;;6159614;23;20079;-84
2022/07/14 04:37:05;;;;;;;13.82;4.18;;;12.30;99.90;;;;;;6184989;23;20015;-84
2022/07/14 04:39:31;;;;;;;11.18;3.80;;;12.50;99.90;;;;;;6158987;23;20108;-84
2022/07/14 04:41:57;;;;;;;12.18;3.30;;;12.80;99.90;;;;;;6185424;23;20020;-84
2022/07/14 04:44:22;;;;;;;14.50;3.67;;;12.60;99.90;;;;;;6157745;23;20346;-84
2022/07/14 04:46:48;;;;;;;13.07;4.05;;;12.60;99.90;;;;;;6185067;23;20021;-83
2022/07/14 04:52:04;;;;;;;10.98;3.63;;;12.70;99.90;;;;;;6183973;23;20462;-83
2022/07/14 04:54:31;;;;;;;12.70;3.60;;;13.40;99.90;;;;;;6158735;23;20020;-83
2022/07/14 04:56:59;;;;;;;13.25;3.50;;;13.30;99.90;;;;;;6185143;23;20438;-84
2022/07/14 04:59:25;;;;;;;9.68;3.38;;;13.00;99.90;;;;;;6157831;23;20064;-83
2022/07/14 05:01:51;;;;;;;11.05;3.30;;;13.00;99.90;;;;;;6158649;23;20402;-84
2022/07/14 05:04:16;;;;;;;13.48;3.63;;;13.20;99.90;;;;;;6185667;23;20021;-84
2022/07/14 05:06:42;;;;;;;12.00;3.15;;;13.10;99.90;;;;;;6157752;23;20023;-84
2022/07/14 05:09:08;;;;;;;12.52;3.08;;;13.20;99.90;;;;;;6158516;23;20019;-83
2022/07/14 05:11:33;;;;;;;11.73;3.22;;;13.30;99.90;;;;;;6184872;23;20401;-84
2022/07/14 05:13:59;;;;;;;14.60;3.22;;;13.30;99.90;;;;;;6157143;23;20103;-84
2022/07/14 05:16:25;;;;;;;14.43;3.60;;;14.30;99.90;;;;;;6185368;23;20095;-84
2022/07/14 05:18:50;;;;;;;11.38;4.25;;;13.40;99.90;;;;;;6157454;23;20021;-84
2022/07/14 05:21:16;;;;;;;17.55;3.03;;;13.40;99.90;;;;;;6158985;23;20009;-84
2022/07/14 05:23:41;;;;;;;10.57;3.35;;;13.50;99.90;;;;;;6158264;23;20341;-84
2022/07/14 05:26:12;;;;;;;14.25;3.67;;;13.60;99.90;;;;;;6157797;23;20112;-83
2022/07/14 05:28:37;;;;;;;14.40;3.10;;;13.60;99.90;;;;;;6185004;23;20021;-84
2022/07/14 05:31:03;;;;;;;10.07;2.88;;;13.70;99.90;;;;;;6158747;23;20471;-84
2022/07/14 05:33:29;;;;;;;12.20;3.00;;;13.80;99.90;;;;;;6184629;23;20097;-84
2022/07/14 05:35:55;;;;;;;12.57;2.95;;;13.80;99.90;;;;;;6185664;23;20073;-84
2022/07/14 05:38:21;;;;;;;9.38;2.65;;;13.90;99.90;;;;;;6185104;23;20504;-84
2022/07/14 05:40:47;;;;;;;10.90;2.72;;;14.00;99.90;;;;;;6157081;23;20021;-83
2022/07/14 05:43:14;;;;;;;12.88;2.75;;;14.00;99.90;;;;;;6158532;23;20092;-84
2022/07/14 05:45:40;;;;;;;9.95;2.65;;;14.00;99.90;;;;;;6185181;23;20017;-84
2022/07/14 05:48:06;;;;;;;10.57;3.00;;;14.10;99.90;;;;;;6157603;23;20334;-84
2022/07/14 05:50:31;;;;;;;9.00;2.88;;;14.70;99.90;;;;;;6158651;23;20461;-84
2022/07/14 05:52:57;;;;;;;9.32;2.47;;;14.20;99.90;;;;;;6184751;23;20072;-84
2022/07/14 05:55:23;;;;;;;7.97;2.38;;;14.30;99.90;;;;;;6183861;23;20071;-84
2022/07/14 05:57:49;;;;;;;11.27;2.05;;;14.40;99.90;;;;;;6185084;23;20017;-84
2022/07/14 06:00:15;;;;;;;9.70;2.42;;;14.50;99.90;;;;;;6183870;23;20430;-84
2022/07/14 06:02:44;;;;;;;13.15;3.83;;;14.60;99.90;;;;;;6157148;23;20024;-84
2022/07/14 06:05:13;;;;;;;9.98;2.38;;;14.70;99.90;;;;;;6160736;23;20013;-84
2022/07/14 06:07:39;;;;;;;10.48;2.38;;;15.40;99.90;;;;;;6160758;23;20017;-84
2022/07/14 06:10:05;;;;;;;9.27;2.25;;;14.90;99.90;;;;;;6185493;23;20051;-84
2022/07/14 06:12:32;;;;;;;8.85;2.28;;;14.90;99.90;;;;;;6160867;23;20017;-84
2022/07/14 06:14:58;;;;;;;10.18;2.10;;;15.00;99.90;;;;;;6160396;23;20036;-84
2022/07/14 06:17:24;;;;;;;8.35;2.30;;;15.00;99.90;;;;;;6160097;23;20052;-84
2022/07/14 06:19:52;;;;;;;9.32;2.83;;;15.00;99.90;;;;;;6160193;23;20472;-84
2022/07/14 06:22:18;;;;;;;9.98;2.20;;;15.40;99.90;;;;;;6185531;23;20017;-84
2022/07/14 06:24:43;;;;;;;8.07;2.10;;;15.00;99.90;;;;;;6159995;23;20468;-84
2022/07/14 06:27:09;;;;;;;6.90;1.80;;;15.50;99.90;;;;;;6187193;23;20089;-84
2022/07/14 06:29:35;;;;;;;11.75;2.10;;;15.20;99.90;;;;;;6159650;23;20013;-84
2022/07/14 06:32:00;;;;;;;10.57;2.13;;;16.00;99.90;;;;;;6160036;23;20021;-85
2022/07/14 06:34:27;;;;;;;9.80;2.20;;;15.70;99.90;;;;;;6160310;23;20083;-91
2022/07/14 07:41:02;;;;;;;8.07;1.80;;;17.80;99.90;;;;;;6035750;23;20106;-86
2022/07/14 08:52:32;;;;;;;5.68;1.52;;;19.10;99.90;;;;;;6123582;23;20022;-87
2022/07/14 08:59:26;;;;;;;5.35;1.50;;;18.30;99.90;;;;;;6124778;23;20069;-86
2022/07/14 09:02:33;;;;;;;4.97;1.55;;;18.60;99.90;;;;;;6127527;23;20018;-86
2022/07/14 09:19:22;;;;;;;3.60;1.20;;;20.20;99.90;;;;;;6126772;23;20041;-86
2022/07/14 09:22:03;;;;;;;8.50;1.52;;;20.70;99.90;;;;;;6094295;23;20032;-85
2022/07/14 09:47:18;;;;;;;5.00;1.20;;;21.40;99.90;;;;;;6154395;23;20079;-86
2022/07/14 09:53:50;;;;;;;5.47;1.38;;;21.20;99.90;;;;;;6154493;23;20083;-87
2022/07/14 09:56:56;;;;;;;4.13;1.27;;;20.80;99.90;;;;;;6035889;23;20094;-86
2022/07/14 11:17:05;;;;;;;6.43;1.40;;;20.90;99.80;;;;;;6185665;23;20016;-87
2022/07/14 11:32:38;;;;;;;4.40;1.35;;;21.00;99.90;;;;;;6137881;23;20025;-87
2022/07/14 11:38:41;;;;;;;4.47;1.40;;;21.70;99.90;;;;;;6186040;23;20016;-87
2022/07/14 11:42:02;;;;;;;3.40;1.17;;;22.00;99.90;;;;;;6137346;23;20272;-89
2022/07/14 11:44:51;;;;;;;5.88;1.50;;;21.10;99.90;;;;;;6119123;23;20017;-88
2022/07/14 11:47:40;;;;;;;5.35;1.50;;;21.20;99.90;;;;;;6185797;23;20071;-87
2022/07/14 11:51:07;;;;;;;5.40;1.40;;;21.70;99.90;;;;;;6148789;23;20435;-87
2022/07/14 11:53:52;;;;;;;6.03;1.60;;;21.10;99.90;;;;;;6153576;23;20028;-88
2022/07/14 11:56:36;;;;;;;8.57;1.73;;;21.00;99.90;;;;;;6156531;23;20454;-89
2022/07/14 11:59:05;;;;;;;5.53;1.40;;;21.20;99.90;;;;;;6155890;23;20056;-88
2022/07/14 12:01:42;;;;;;;4.22;1.40;;;22.00;99.90;;;;;;6128885;23;20454;-88
2022/07/14 12:05:10;;;;;;;5.60;1.40;;;21.20;99.90;;;;;;6156666;23;20013;-88
2022/07/14 12:08:07;;;;;;;3.55;1.35;;;21.10;99.90;;;;;;6155388;23;20077;-88
2022/07/14 12:19:36;;;;;;;8.52;1.90;;;21.00;99.90;;;;;;6246364;23;20016;-88
2022/07/14 12:22:20;;;;;;;5.60;1.60;;;20.70;99.90;;;;;;6245762;23;20020;-88
2022/07/14 12:25:25;;;;;;;4.60;1.42;;;21.10;99.90;;;;;;6244871;22;20019;-89
2022/07/14 12:28:30;;;;;;;5.38;1.55;;;21.40;99.90;;;;;;6243485;23;20051;-88
2022/07/14 12:31:52;;;;;;;5.30;1.75;;;22.90;99.90;;;;;;6243870;23;20046;-87
2022/07/14 12:34:57;;;;;;;5.03;1.50;;;22.30;99.90;;;;;;6135914;23;20088;-88
2022/07/14 12:37:23;;;;;;;5.43;1.48;;;22.70;99.00;;;;;;6244535;23;20012;-87
2022/07/14 12:40:19;;;;;;;5.43;1.50;;;23.30;98.60;;;;;;6237345;22;20024;-88
2022/07/14 12:45:11;;;;;;;4.95;1.33;;;23.40;98.00;;;;;;6222002;23;20027;-87
2022/07/14 12:48:01;;;;;;;9.75;1.60;;;23.10;98.00;;;;;;6219567;23;20026;-88
2022/07/14 12:50:45;;;;;;;3.67;1.50;;;22.80;97.30;;;;;;6218592;23;20463;-88
2022/07/14 12:53:17;;;;;;;4.45;1.40;;;22.50;97.60;;;;;;6246451;23;20023;-88
2022/07/14 12:56:32;;;;;;;8.30;1.55;;;22.40;98.60;;;;;;6245295;23;20415;-88
2022/07/14 13:02:28;;;;;;;5.45;1.65;;;22.20;98.80;;;;;;6246086;23;20073;-88
2022/07/14 13:05:03;;;;;;;5.70;1.60;;;22.30;98.90;;;;;;6245821;23;20054;-88
2022/07/14 13:07:32;;;;;;;6.07;1.45;;;21.90;98.90;;;;;;6246107;23;20024;-88
2022/07/14 13:13:57;;;;;;;3.60;1.30;;;21.60;99.00;;;;;;6099734;23;20096;-87
2022/07/14 13:19:51;;;;;;;3.10;1.23;;;22.10;98.60;;;;;;6124165;23;20057;-88
2022/07/14 13:22:28;;;;;;;5.70;1.50;;;22.00;99.10;;;;;;6123772;23;20415;-88
2022/07/14 13:25:03;;;;;;;6.25;1.67;;;22.00;99.20;;;;;;6098189;23;20117;-88
2022/07/14 13:27:47;;;;;;;5.45;1.60;;;21.00;98.50;;;;;;6099776;23;20022;-88
2022/07/14 13:30:35;;;;;;;6.40;1.50;;;21.00;99.80;;;;;;6126557;23;20018;-88
2022/07/14 13:39:59;;;;;;;4.63;1.50;;;20.40;99.30;;;;;;6186790;23;20033;-88
2022/07/14 13:42:43;;;;;;;5.18;1.55;;;20.50;99.90;;;;;;6151916;23;20025;-88
2022/07/14 13:45:21;;;;;;;7.22;1.63;;;20.50;99.90;;;;;;6150872;23;20084;-88
2022/07/14 13:47:50;;;;;;;4.00;1.48;;;20.40;99.90;;;;;;6149089;23;20022;-88
2022/07/14 13:53:44;;;;;;;6.25;1.63;;;20.50;99.90;;;;;;6147808;23;20104;-88
2022/07/14 13:56:25;;;;;;;5.78;1.50;;;21.30;99.90;;;;;;6151503;23;20362;-88
2022/07/14 13:59:03;;;;;;;6.03;1.75;;;22.20;99.90;;;;;;6151670;23;20052;-88
2022/07/14 14:01:38;;;;;;;4.75;1.50;;;23.10;99.70;;;;;;6123627;23;20024;-88
2022/07/14 14:04:06;;;;;;;6.10;1.60;;;22.20;98.70;;;;;;6125617;23;20028;-88
2022/07/14 14:06:32;;;;;;;6.57;1.63;;;22.00;99.30;;;;;;6123833;23;20028;-88
2022/07/14 14:09:15;;;;;;;5.50;1.50;;;21.40;99.30;;;;;;6124708;23;20013;-86
2022/07/14 14:11:43;;;;;;;4.55;1.50;;;21.10;99.90;;;;;;6124188;23;20541;-88
2022/07/14 14:14:40;;;;;;;8.57;1.90;;;20.80;99.90;;;;;;6106997;23;20041;-86
2022/07/14 14:17:13;;;;;;;7.50;1.98;;;21.20;99.90;;;;;;6151296;23;20024;-86
2022/07/14 14:19:44;;;;;;;4.97;1.60;;;20.40;99.90;;;;;;6152155;23;20125;-87
2022/07/14 14:22:28;;;;;;;6.93;1.70;;;21.10;99.90;;;;;;6150250;23;20272;-86
2022/07/14 14:24:53;;;;;;;5.47;1.52;;;21.00;99.90;;;;;;6149644;23;20117;-87
2022/07/14 14:27:34;;;;;;;6.10;1.67;;;20.20;99.90;;;;;;6152607;23;20482;-87
2022/07/14 14:30:41;;;;;;;6.07;1.70;;;20.00;99.90;;;;;;6152708;23;20422;-86
2022/07/14 14:33:24;;;;;;;7.43;1.75;;;20.00;99.90;;;;;;6153637;23;20529;-89
2022/07/14 14:39:28;;;;;;;8.82;1.80;;;20.70;99.90;;;;;;6147817;23;20105;-88
2022/07/14 14:42:02;;;;;;;5.05;1.90;;;20.80;99.90;;;;;;6150093;23;20586;-87
2022/07/14 14:44:55;;;;;;;5.68;1.60;;;19.90;99.90;;;;;;6152789;23;20017;-87
2022/07/14 14:47:43;;;;;;;5.97;1.67;;;20.00;99.90;;;;;;6151356;23;20022;-88
2022/07/14 14:50:12;;;;;;;5.18;1.50;;;19.80;99.90;;;;;;6138489;23;20024;-88
2022/07/14 14:52:38;;;;;;;4.10;1.45;;;20.80;99.90;;;;;;6153238;23;20102;-87
2022/07/14 14:55:24;;;;;;;6.72;1.83;;;19.90;99.90;;;;;;6154698;23;20013;-88
2022/07/14 14:58:00;;;;;;;4.05;1.40;;;19.90;99.90;;;;;;6125624;23;20021;-88
2022/07/14 15:00:41;;;;;;;5.50;1.67;;;19.80;99.90;;;;;;6126335;23;20346;-86
2022/07/14 15:03:22;;;;;;;6.95;1.75;;;19.70;99.90;;;;;;6152684;23;20029;-86
2022/07/14 15:06:02;;;;;;;6.70;1.65;;;19.60;99.90;;;;;;6125931;23;20025;-86
2022/07/14 15:08:46;;;;;;;6.07;1.70;;;19.60;99.90;;;;;;6126412;23;20028;-86
2022/07/14 15:11:15;;;;;;;6.38;1.75;;;20.00;99.90;;;;;;6125097;23;20052;-86
2022/07/14 15:13:59;;;;;;;5.53;1.70;;;20.50;99.90;;;;;;6125328;23;20025;-86
2022/07/14 15:16:40;;;;;;;;;;;20.40;99.90;;;;;;6127320;23;20049;-86
2022/07/14 15:19:26;;;;;;;9.48;1.70;;;19.40;99.90;;;;;;6124015;23;19916;-86
2022/07/14 15:22:15;;;;;;;5.70;1.70;;;19.70;99.90;;;;;;6151278;23;20073;-87
2022/07/14 15:25:19;;;;;;;6.78;1.60;;;19.80;99.90;;;;;;6158291;23;20620;-85
2022/07/14 15:28:22;;;;;;;4.57;1.60;;;19.80;99.90;;;;;;6107822;23;20597;-85
2022/07/14 15:30:48;;;;;;;5.13;1.50;;;20.00;99.90;;;;;;6124508;23;20451;-85
2022/07/14 15:33:15;;;;;;;6.13;1.60;;;20.00;99.90;;;;;;6127521;23;20032;-86
2022/07/14 15:36:11;;;;;;;5.03;1.55;;;20.20;99.90;;;;;;6125262;23;20018;-85
2022/07/14 15:57:26;;;;;;;4.65;1.60;;;21.70;99.20;;;;;;5952919;24;20102;-88
2022/07/14 16:00:10;;;;;;;7.40;1.70;;;22.20;98.80;;;;;;5949847;24;20024;-87
2022/07/14 16:03:30;;;;;;;5.32;1.58;;;21.20;99.60;;;;;;5951775;24;20084;-87
2022/07/14 16:09:43;;;;;;;6.13;1.60;;;21.30;99.00;;;;;;5951309;24;20020;-87
2022/07/14 16:23:12;;;;;;;4.57;1.73;;;21.60;96.80;;;;;;5970521;23;20023;-89
2022/07/14 16:25:43;;;;;;;6.95;1.50;;;21.90;97.00;;;;;;6037496;23;20025;-89
2022/07/14 16:28:30;;;;;;;5.35;1.67;;;22.30;97.20;;;;;;6125107;23;20022;-88
2022/07/14 16:31:06;;;;;;;4.30;1.40;;;21.40;96.90;;;;;;6099965;23;20029;-89
2022/07/14 16:33:34;;;;;;;6.72;1.63;;;21.30;97.20;;;;;;6127054;23;20018;-90
2022/07/14 16:36:12;;;;;;;6.38;1.70;;;21.30;97.10;;;;;;6124781;23;20105;-89
2022/07/14 16:38:59;;;;;;;6.35;1.60;;;21.10;96.80;;;;;;6062790;23;20189;-88
2022/07/14 16:41:42;;;;;;;4.65;1.45;;;21.70;96.80;;;;;;6099168;23;20022;-90
2022/07/14 16:44:10;;;;;;;3.55;1.40;;;21.40;96.50;;;;;;6126353;23;20088;-89
2022/07/14 16:46:48;;;;;;;5.03;1.70;;;21.40;95.80;;;;;;6100411;23;20026;-89
2022/07/14 16:49:23;;;;;;;6.75;1.70;;;22.70;95.10;;;;;;6099546;23;20325;-90
2022/07/14 16:51:53;;;;;;;6.47;1.67;;;22.70;96.00;;;;;;6147809;23;20442;-89
2022/07/14 16:54:51;;;;;;;7.70;2.00;;;22.80;97.20;;;;;;6129130;23;20084;-88
2022/07/14 16:57:22;;;;;;;9.50;2.10;;;22.80;98.10;;;;;;6074218;23;20339;-89
2022/07/14 16:59:54;;;;;;;6.53;1.80;;;22.40;99.90;;;;;;6127627;23;20458;-89
2022/07/14 17:02:25;;;;;;;8.15;2.20;;;21.80;99.90;;;;;;6154636;23;20024;-89
2022/07/14 17:07:55;;;;;;;8.98;2.10;;;22.60;99.90;;;;;;6128123;23;20021;-89
2022/07/14 17:10:43;;;;;;;8.38;2.20;;;23.40;99.90;;;;;;6127937;23;20021;-87
2022/07/14 17:13:18;;;;;;;7.95;2.08;;;22.70;99.90;;;;;;6128167;23;20346;-90
2022/07/14 17:15:49;;;;;;;8.77;2.28;;;22.60;99.90;;;;;;6127484;23;20028;-88
2022/07/14 17:18:15;;;;;;;8.50;2.17;;;22.00;99.90;;;;;;6127497;23;20101;-86
2022/07/14 17:20:41;;;;;;;5.88;1.80;;;21.50;99.90;;;;;;6128456;23;20045;-86
2022/07/14 17:23:08;;;;;;;7.18;1.70;;;21.30;99.90;;;;;;6129693;23;20105;-86
2022/07/14 17:25:34;;;;;;;6.95;2.03;;;21.10;99.90;;;;;;6154473;23;20033;-84
2022/07/14 17:28:00;;;;;;;10.00;2.20;;;21.00;99.90;;;;;;6128269;23;20018;-84
2022/07/14 17:30:25;;;;;;;7.57;2.13;;;21.40;99.90;;;;;;6154174;23;20088;-84
2022/07/14 17:32:51;;;;;;;6.63;1.88;;;21.60;99.90;;;;;;6155068;23;20093;-84
2022/07/14 17:35:16;;;;;;;8.02;1.98;;;22.10;99.90;;;;;;6128940;23;20454;-85
2022/07/14 17:37:43;;;;;;;10.07;2.17;;;22.50;99.90;;;;;;6127534;23;20013;-85
2022/07/14 17:40:13;;;;;;;9.50;2.55;;;22.90;99.90;;;;;;6129057;23;20039;-85
2022/07/14 17:42:39;;;;;;;9.05;2.65;;;22.50;99.90;;;;;;6129069;23;20013;-86
2022/07/14 17:48:40;;;;;;;9.20;2.20;;;21.90;99.90;;;;;;6173452;23;20032;-85
2022/07/14 17:54:11;;;;;;;7.47;2.35;;;22.00;99.90;;;;;;6139862;23;20029;-85
2022/07/14 17:56:38;;;;;;;8.70;2.50;;;22.40;99.90;;;;;;6128868;23;20026;-85
2022/07/14 17:59:04;;;;;;;8.75;2.40;;;22.90;99.90;;;;;;6127554;23;20113;-85
2022/07/14 18:01:29;;;;;;;7.82;2.25;;;22.50;99.90;;;;;;6157310;23;20399;-85
2022/07/14 18:03:55;;;;;;;7.28;2.17;;;22.20;99.90;;;;;;6156038;23;20060;-84
2022/07/14 18:06:21;;;;;;;7.63;2.25;;;21.60;99.90;;;;;;6132048;23;20241;-83
2022/07/14 18:09:49;;;;;;;9.13;2.47;;;21.00;99.90;;;;;;6160149;23;20024;-85
2022/07/14 18:13:06;;;;;;;12.35;4.28;;;20.50;99.90;;;;;;6158671;23;20334;-85
2022/07/14 18:16:23;;;;;;;21.73;11.20;;;20.00;99.90;;;;;;6186145;23;20529;-85
2022/07/14 18:18:49;;;;;;;9.18;3.10;;;19.60;99.90;;;;;;6159425;23;20017;-85
2022/07/14 18:21:15;;;;;;;9.35;2.67;;;19.40;99.90;;;;;;6159078;23;20023;-85
2022/07/14 18:23:44;;;;;;;8.85;2.60;;;19.00;99.90;;;;;;6159776;23;20025;-84
2022/07/14 18:26:11;;;;;;;11.30;3.30;;;18.70;99.90;;;;;;6159939;23;20084;-84
2022/07/14 18:28:37;;;;;;;8.27;2.60;;;18.50;99.90;;;;;;6185646;23;20013;-85
2022/07/14 18:31:04;;;;;;;9.77;2.40;;;19.10;99.90;;;;;;6186590;23;20068;-85
2022/07/14 18:33:32;;;;;;;10.25;2.50;;;18.40;99.90;;;;;;6186214;23;20017;-85
2022/07/14 18:35:59;;;;;;;11.98;4.38;;;18.20;99.90;;;;;;6181601;23;20483;-85
2022/07/14 18:38:24;;;;;;;9.32;2.85;;;18.20;99.90;;;;;;6184425;23;20385;-84
2022/07/14 18:40:50;;;;;;;11.02;3.10;;;18.20;99.90;;;;;;6182567;23;20015;-85
2022/07/14 18:43:16;;;;;;;10.35;2.83;;;18.20;99.90;;;;;;6158265;23;20075;-85
2022/07/14 18:48:26;;;;;;;10.52;2.58;;;18.90;99.90;;;;;;6157540;23;20053;-85
2022/07/14 18:50:51;;;;;;;9.20;2.95;;;19.20;99.90;;;;;;6158207;23;20024;-85
2022/07/14 18:53:17;;;;;;;9.23;3.70;;;19.30;99.90;;;;;;6158776;23;20488;-84
2022/07/14 18:55:44;;;;;;;10.10;2.60;;;19.20;99.90;;;;;;6185057;23;20045;-83
2022/07/14 18:58:09;;;;;;;9.30;2.95;;;19.10;99.90;;;;;;6185661;23;20468;-84
2022/07/14 19:00:35;;;;;;;8.70;2.72;;;19.10;99.90;;;;;;6158275;23;20101;-84
2022/07/14 19:03:09;;;;;;;8.57;3.05;;;19.20;99.90;;;;;;6160278;23;20021;-85
2022/07/14 19:05:41;;;;;;;8.02;2.33;;;19.30;99.90;;;;;;6155032;23;20022;-85
2022/07/14 19:08:21;;;;;;;6.53;2.28;;;19.30;99.90;;;;;;6155799;23;20017;-85
2022/07/14 19:10:50;;;;;;;9.63;3.50;;;19.90;99.90;;;;;;6127285;23;20112;-84
2022/07/14 19:13:19;;;;;;;9.63;3.53;;;19.60;99.90;;;;;;6128949;23;20028;-85
2022/07/14 19:15:49;;;;;;;8.73;2.38;;;18.70;99.90;;;;;;6127792;23;20100;-84
2022/07/14 19:18:16;;;;;;;9.65;2.25;;;18.40;99.90;;;;;;6158061;23;20033;-84
2022/07/14 19:20:42;;;;;;;9.70;2.92;;;18.50;99.90;;;;;;6132760;23;20017;-84